• Join FlightAware (Why Join?)
  • Login
  • US Flag GB Flag 
10:32 EDT


 

Airport Tracker/Info


-or-


 

Live Flight TrackerFlight Track Log ✈ EJA839 ✈ 01-May-2013 ✈ KLOM - KBTL

Flight Track Log - Related Links

Times and Time Zones

All times are in EDT time to prevent confusion due to time zone crossing. See the EJA839 flight status page for this flight to view local times or setup timezone preferences in your user account.

Time Position Orientation Groundspeed Altitude Reporting Facility
EDT Latitude Longitude Course Direction KTS MPH feet Rate Location/Type
16:56 40.1500 -75.2500 313° West 149 171 900  Level Philadelphia TRACON
16:57 40.1919 -75.2789 332° Northwest 215 247 3,000 2,340 Climbing New York Center
16:58 40.1892 -75.3519 267° West 253 291 5,700 3,000 Climbing New York Center
16:59 40.2058 -75.4617 281° West 309 356 9,200 2,820 Climbing New York Center
17:00 40.2250 -75.5556 285° West 309 356 11,400 2,460 Climbing New York Center
17:01 40.2856 -75.6522 309° West 301 346 14,200 2,640 Climbing New York Center
17:02 40.3891 -75.8200 313° West  Level FlightAware Approximate
17:02 40.3403 -75.7406 309° West 313 360 16,800  Level New York Center
17:03 40.3989 -75.8292 311° West 319 367 18,200 1,620 Climbing New York Center
17:04 40.4431 -75.9169 303° West 327 376 20,000 1,320 Climbing New York Center
17:05 40.4647 -76.0414 283° West 328 377 21,000 480 Climbing New York Center
17:06 40.4856 -76.1822 281° West 353 406 21,000 300 Level New York Center
17:07 40.5061 -76.3203 281° West 378 435 21,700 1,260 Climbing New York Center
17:08 40.5269 -76.4558 281° West 384 442 23,600 1,800 Climbing New York Center
17:09 40.5494 -76.5917 282° West 378 435 25,300 1,200 Climbing New York Center
17:10 40.5825 -76.7228 288° West 378 435 26,000 300 Climbing New York Center
17:11 40.6214 -76.8603 290° West 390 449 26,000  Level New York Center
17:12 40.6594 -77.0086 289° West 410 472 26,000  Level New York Center
17:13 40.6978 -77.1517 290° West 418 481 26,000  Level New York Center
17:14 40.7631 -77.4031 289° West 439 505 26,000  Level Cleveland Center
17:15 40.7978 -77.5303 290° West 405 466 26,000  Level Cleveland Center
17:16 40.8281 -77.6550 288° West 375 432 26,000  Level Cleveland Center
17:17 40.8606 -77.7828 289° West 370 426 26,000  Level Cleveland Center
17:18 40.8928 -77.9106 288° West 370 426 26,000  Level Cleveland Center
17:19 40.9206 -78.0383 286° West 365 420 26,000  Level Cleveland Center
17:20 40.9381 -78.1725 280° West 365 420 26,000  Level Cleveland Center
17:21 40.9531 -78.2931 279° West 372 428 26,000  Level Cleveland Center
17:22 40.9703 -78.4269 280° West 372 428 26,000  Level Cleveland Center
17:23 40.9997 -78.5581 287° West 372 428 26,000  Level Cleveland Center
17:24 41.0314 -78.6894 288° West 372 428 26,000  Level Cleveland Center
17:25 41.0606 -78.8181 287° West 372 428 26,000  Level Cleveland Center
17:26 41.0914 -78.9439 288° West 372 428 26,000  Level Cleveland Center
17:27 41.1203 -79.0756 286° West 372 428 26,000  Level Cleveland Center
17:28 41.1492 -79.2044 287° West 372 428 26,000  Level Cleveland Center
17:29 41.1819 -79.3306 289° West 372 428 26,000  Level Cleveland Center
17:30 41.2083 -79.4597 285° West 372 428 26,000  Level Cleveland Center
17:31 41.2406 -79.5889 288° West 372 428 26,000  Level Cleveland Center
17:32 41.2711 -79.7350 286° West 377 434 26,000  Level Cleveland Center
17:33 41.3011 -79.8617 288° West 377 434 26,000  Level Cleveland Center
17:34 41.3289 -79.9914 286° West 372 428 26,000  Level Cleveland Center
17:35 41.3567 -80.1044 288° West 367 422 26,000  Level Cleveland Center
17:36 41.3842 -80.2344 286° West 367 422 26,000  Level Cleveland Center
17:37 41.4178 -80.3811 287° West 367 422 26,000  Level Cleveland Center
17:38 41.4450 -80.5083 286° West 367 422 26,000  Level Cleveland Center
17:39 41.4742 -80.6414 286° West 367 422 26,000  Level Cleveland Center
17:40 41.4992 -80.7578 286° West 367 422 26,000  Level Cleveland Center
17:41 41.5281 -80.8883 287° West 367 422 26,000  Level Cleveland Center
17:42 41.5528 -81.0214 284° West 367 422 26,000  Level Cleveland Center
17:43 41.5814 -81.1522 286° West 367 422 26,000  Level Cleveland Center
17:44 41.6056 -81.2886 283° West 372 428 26,000  Level Cleveland Center
17:45 41.6317 -81.4222 285° West 377 434 26,000  Level Cleveland Center
17:46 41.6597 -81.5531 286° West 377 434 26,000  Level Cleveland Center
17:47 41.6858 -81.6869 285° West 377 434 26,000  Level Cleveland Center
17:48 41.7114 -81.8208 284° West 377 434 26,000  Level Cleveland Center
17:49 41.7369 -81.9550 284° West 377 434 26,000  Level Cleveland Center
17:50 41.7603 -82.0892 283° West 377 434 26,000  Level Cleveland Center
17:51 41.7856 -82.2261 284° West 377 434 26,000  Level Cleveland Center
17:52 41.8106 -82.3606 284° West 377 434 26,000  Level Cleveland Center
17:53 41.8356 -82.4950 284° West 377 434 26,000  Level Cleveland Center
17:54 41.8603 -82.6294 284° West 377 434 26,000  Level Cleveland Center
17:55 41.8850 -82.7669 284° West 377 434 26,000  Level Cleveland Center
17:56 41.9094 -82.9044 283° West 377 434 26,000  Level Cleveland Center
17:57 41.9356 -83.0422 284° West 377 434 26,000  Level Cleveland Center
17:58 41.9725 -83.1722 291° West 377 434 26,000 -240 Level Cleveland Center
17:59 42.0469 -83.2900 310° West 375 432 25,600 -540 Descending Cleveland Center
18:00 42.1192 -83.4022 311° West 385 443 25,000 -300 Descending Cleveland Center
18:01 42.1617 -83.5386 293° West 391 450 25,000 -540 Level Cleveland Center
18:02 42.1764 -83.6850 278° West 391 450 24,000  Descending Cleveland Center
18:03 42.1869 -83.8339 276° West 391 450 25,000 240 Climbing Cleveland Center
18:04 42.1994 -83.9806 277° West 396 456 24,500 -1,440 Descending Cleveland Center
18:05 42.2136 -84.1297 277° West 396 456 22,200 -2,700 Descending Cleveland Center
18:06 42.2278 -84.2764 277° West 396 456 19,100 -3,060 Descending Cleveland Center
18:07 42.2400 -84.4147 277° West 391 450 16,100 -3,180 Descending Cleveland Center
18:08 42.2503 -84.5444 276° West 377 434 12,800 -1,860 Descending Cleveland Center
18:10 42.2706 -84.7589 277° West 340 391 11,000 -660 Descending Chicago Center
18:11 42.2806 -84.8861 276° West 340 391 11,000 -960 Level Chicago Center
18:12 42.3011 -84.9925 285° West 322 371 9,100 -2,580 Descending Chicago Center
18:13 42.3656 -85.0833 314° West 285 328 5,700 -3,000 Descending Chicago Center
18:14 42.3931 -85.1789 291° West 276 318 2,900 -1,560 Descending Chicago Center
18:15 42.4194 -85.2603 294° West 249 287 2,500 -240 Descending Chicago Center
18:17 42.3922 -85.3125 235° Southwest 208 239 2,500 -60 Level Chicago Center
18:18 42.3503 -85.3278 195° South 184 212 2,400 -540 Descending Chicago Center
18:19 42.3278 -85.2772 121° Southeast 154 177 1,400 -1,020 Descending Chicago Center